sensor_id;sensor_type;location;lat;lon;timestamp;P1;durP1;ratioP1;P2;durP2;ratioP2
2866;SDS011;1441;48.886;8.728;2023-04-25T00:01:36;6.77;;;2.07;;
2866;SDS011;1441;48.886;8.728;2023-04-25T00:04:02;1.80;;;1.70;;
2866;SDS011;1441;48.886;8.728;2023-04-25T00:06:30;3.63;;;2.10;;
2866;SDS011;1441;48.886;8.728;2023-04-25T00:08:57;1.80;;;1.63;;
2866;SDS011;1441;48.886;8.728;2023-04-25T00:11:23;3.53;;;1.70;;
2866;SDS011;1441;48.886;8.728;2023-04-25T00:13:49;1.93;;;1.83;;
2866;SDS011;1441;48.886;8.728;2023-04-25T00:16:17;1.70;;;1.60;;
2866;SDS011;1441;48.886;8.728;2023-04-25T00:18:43;2.00;;;1.90;;
2866;SDS011;1441;48.886;8.728;2023-04-25T00:21:11;1.97;;;1.87;;
2866;SDS011;1441;48.886;8.728;2023-04-25T00:23:36;5.00;;;2.43;;
2866;SDS011;1441;48.886;8.728;2023-04-25T00:26:03;5.33;;;1.90;;
2866;SDS011;1441;48.886;8.728;2023-04-25T00:28:29;3.10;;;1.97;;
2866;SDS011;1441;48.886;8.728;2023-04-25T00:30:55;4.07;;;2.20;;
2866;SDS011;1441;48.886;8.728;2023-04-25T00:33:20;2.00;;;1.90;;
2866;SDS011;1441;48.886;8.728;2023-04-25T00:35:46;2.60;;;1.90;;
2866;SDS011;1441;48.886;8.728;2023-04-25T00:38:11;3.33;;;1.93;;
2866;SDS011;1441;48.886;8.728;2023-04-25T00:40:37;9.63;;;2.33;;
2866;SDS011;1441;48.886;8.728;2023-04-25T00:43:03;4.30;;;1.83;;
2866;SDS011;1441;48.886;8.728;2023-04-25T00:45:29;3.80;;;2.10;;
2866;SDS011;1441;48.886;8.728;2023-04-25T00:47:55;3.50;;;1.73;;
2866;SDS011;1441;48.886;8.728;2023-04-25T00:50:22;2.63;;;2.00;;
2866;SDS011;1441;48.886;8.728;2023-04-25T00:52:47;1.53;;;1.43;;
2866;SDS011;1441;48.886;8.728;2023-04-25T00:55:13;3.03;;;1.77;;
2866;SDS011;1441;48.886;8.728;2023-04-25T00:57:40;1.67;;;1.57;;
2866;SDS011;1441;48.886;8.728;2023-04-25T01:00:06;2.77;;;1.77;;
2866;SDS011;1441;48.886;8.728;2023-04-25T01:02:34;2.30;;;2.10;;
2866;SDS011;1441;48.886;8.728;2023-04-25T01:05:00;1.43;;;1.30;;
2866;SDS011;1441;48.886;8.728;2023-04-25T01:07:26;3.50;;;1.70;;
2866;SDS011;1441;48.886;8.728;2023-04-25T01:09:52;1.20;;;1.20;;
2866;SDS011;1441;48.886;8.728;2023-04-25T01:12:17;1.60;;;1.43;;
2866;SDS011;1441;48.886;8.728;2023-04-25T01:14:43;1.43;;;1.40;;
2866;SDS011;1441;48.886;8.728;2023-04-25T01:17:10;1.50;;;1.40;;
2866;SDS011;1441;48.886;8.728;2023-04-25T01:19:36;2.17;;;1.73;;
2866;SDS011;1441;48.886;8.728;2023-04-25T01:22:02;2.63;;;2.10;;
2866;SDS011;1441;48.886;8.728;2023-04-25T01:24:28;2.80;;;2.30;;
2866;SDS011;1441;48.886;8.728;2023-04-25T01:26:56;9.00;;;2.77;;
2866;SDS011;1441;48.886;8.728;2023-04-25T01:29:22;5.07;;;2.30;;
2866;SDS011;1441;48.886;8.728;2023-04-25T01:31:49;2.80;;;2.60;;
2866;SDS011;1441;48.886;8.728;2023-04-25T01:34:16;4.13;;;2.90;;
2866;SDS011;1441;48.886;8.728;2023-04-25T01:36:42;4.50;;;2.37;;
2866;SDS011;1441;48.886;8.728;2023-04-25T01:39:08;3.40;;;2.60;;
2866;SDS011;1441;48.886;8.728;2023-04-25T01:41:34;3.50;;;2.70;;
2866;SDS011;1441;48.886;8.728;2023-04-25T01:44:00;2.90;;;2.70;;
2866;SDS011;1441;48.886;8.728;2023-04-25T01:46:26;6.10;;;2.20;;
2866;SDS011;1441;48.886;8.728;2023-04-25T01:48:52;2.80;;;2.60;;
2866;SDS011;1441;48.886;8.728;2023-04-25T01:51:18;6.10;;;2.70;;
2866;SDS011;1441;48.886;8.728;2023-04-25T01:53:43;4.40;;;3.20;;
2866;SDS011;1441;48.886;8.728;2023-04-25T01:56:09;2.97;;;2.27;;
2866;SDS011;1441;48.886;8.728;2023-04-25T01:58:35;2.27;;;2.17;;
2866;SDS011;1441;48.886;8.728;2023-04-25T02:01:01;5.40;;;2.50;;
2866;SDS011;1441;48.886;8.728;2023-04-25T02:03:26;2.50;;;2.40;;
2866;SDS011;1441;48.886;8.728;2023-04-25T02:05:52;4.83;;;2.80;;
2866;SDS011;1441;48.886;8.728;2023-04-25T02:08:17;3.97;;;2.60;;
2866;SDS011;1441;48.886;8.728;2023-04-25T02:10:44;5.00;;;2.50;;
2866;SDS011;1441;48.886;8.728;2023-04-25T02:13:09;3.10;;;2.80;;
2866;SDS011;1441;48.886;8.728;2023-04-25T02:15:35;4.33;;;2.60;;
2866;SDS011;1441;48.886;8.728;2023-04-25T02:18:00;2.83;;;2.63;;
2866;SDS011;1441;48.886;8.728;2023-04-25T02:20:27;3.70;;;3.37;;
2866;SDS011;1441;48.886;8.728;2023-04-25T02:22:53;4.20;;;3.40;;
2866;SDS011;1441;48.886;8.728;2023-04-25T02:25:19;4.80;;;3.40;;
2866;SDS011;1441;48.886;8.728;2023-04-25T02:27:46;8.40;;;3.80;;
2866;SDS011;1441;48.886;8.728;2023-04-25T02:30:12;7.87;;;3.50;;
2866;SDS011;1441;48.886;8.728;2023-04-25T02:32:38;4.00;;;3.03;;
2866;SDS011;1441;48.886;8.728;2023-04-25T02:35:05;3.87;;;3.37;;
2866;SDS011;1441;48.886;8.728;2023-04-25T02:37:31;7.13;;;3.17;;
2866;SDS011;1441;48.886;8.728;2023-04-25T02:39:57;3.73;;;3.37;;
2866;SDS011;1441;48.886;8.728;2023-04-25T02:42:23;3.63;;;3.43;;
2866;SDS011;1441;48.886;8.728;2023-04-25T02:44:49;4.40;;;3.40;;
2866;SDS011;1441;48.886;8.728;2023-04-25T02:47:14;3.50;;;3.17;;
2866;SDS011;1441;48.886;8.728;2023-04-25T02:49:40;5.13;;;3.37;;
2866;SDS011;1441;48.886;8.728;2023-04-25T02:52:05;3.47;;;2.73;;
2866;SDS011;1441;48.886;8.728;2023-04-25T02:54:31;4.33;;;3.30;;
2866;SDS011;1441;48.886;8.728;2023-04-25T02:56:57;3.60;;;3.10;;
2866;SDS011;1441;48.886;8.728;2023-04-25T02:59:22;6.17;;;3.40;;
2866;SDS011;1441;48.886;8.728;2023-04-25T03:01:48;5.93;;;2.93;;
2866;SDS011;1441;48.886;8.728;2023-04-25T03:04:13;3.53;;;3.23;;
2866;SDS011;1441;48.886;8.728;2023-04-25T03:06:39;4.20;;;3.43;;
2866;SDS011;1441;48.886;8.728;2023-04-25T03:09:04;4.83;;;3.00;;
2866;SDS011;1441;48.886;8.728;2023-04-25T03:11:30;4.17;;;3.77;;
2866;SDS011;1441;48.886;8.728;2023-04-25T03:13:56;4.80;;;3.33;;
2866;SDS011;1441;48.886;8.728;2023-04-25T03:16:21;3.67;;;2.87;;
2866;SDS011;1441;48.886;8.728;2023-04-25T03:18:47;4.53;;;3.20;;
2866;SDS011;1441;48.886;8.728;2023-04-25T03:21:12;3.23;;;2.50;;
2866;SDS011;1441;48.886;8.728;2023-04-25T03:23:38;4.67;;;3.47;;
2866;SDS011;1441;48.886;8.728;2023-04-25T03:26:04;3.30;;;3.10;;
2866;SDS011;1441;48.886;8.728;2023-04-25T03:28:29;3.90;;;3.60;;
2866;SDS011;1441;48.886;8.728;2023-04-25T03:30:55;3.13;;;2.93;;
2866;SDS011;1441;48.886;8.728;2023-04-25T03:33:21;3.60;;;3.20;;
2866;SDS011;1441;48.886;8.728;2023-04-25T03:35:47;2.83;;;2.67;;
2866;SDS011;1441;48.886;8.728;2023-04-25T03:38:12;5.33;;;3.03;;
2866;SDS011;1441;48.886;8.728;2023-04-25T03:40:38;4.30;;;3.70;;
2866;SDS011;1441;48.886;8.728;2023-04-25T03:43:03;4.20;;;3.77;;
2866;SDS011;1441;48.886;8.728;2023-04-25T03:45:29;4.07;;;3.60;;
2866;SDS011;1441;48.886;8.728;2023-04-25T03:47:55;4.50;;;3.57;;
2866;SDS011;1441;48.886;8.728;2023-04-25T03:50:21;4.30;;;3.40;;
2866;SDS011;1441;48.886;8.728;2023-04-25T03:52:46;6.50;;;3.50;;
2866;SDS011;1441;48.886;8.728;2023-04-25T03:55:12;4.30;;;3.73;;
2866;SDS011;1441;48.886;8.728;2023-04-25T03:57:37;4.10;;;3.27;;
2866;SDS011;1441;48.886;8.728;2023-04-25T04:00:03;6.27;;;3.00;;
2866;SDS011;1441;48.886;8.728;2023-04-25T04:02:29;6.27;;;3.00;;
2866;SDS011;1441;48.886;8.728;2023-04-25T04:04:55;3.60;;;3.30;;
2866;SDS011;1441;48.886;8.728;2023-04-25T04:07:21;3.70;;;3.30;;
2866;SDS011;1441;48.886;8.728;2023-04-25T04:09:47;2.53;;;2.33;;
2866;SDS011;1441;48.886;8.728;2023-04-25T04:12:12;4.40;;;3.20;;
2866;SDS011;1441;48.886;8.728;2023-04-25T04:14:38;7.47;;;2.63;;
2866;SDS011;1441;48.886;8.728;2023-04-25T04:17:03;3.70;;;3.00;;
2866;SDS011;1441;48.886;8.728;2023-04-25T04:19:30;2.60;;;2.43;;
2866;SDS011;1441;48.886;8.728;2023-04-25T04:21:56;4.07;;;2.67;;
2866;SDS011;1441;48.886;8.728;2023-04-25T04:24:21;3.40;;;3.10;;
2866;SDS011;1441;48.886;8.728;2023-04-25T04:26:47;3.60;;;2.80;;
2866;SDS011;1441;48.886;8.728;2023-04-25T04:29:13;3.10;;;2.90;;
2866;SDS011;1441;48.886;8.728;2023-04-25T04:31:45;3.97;;;2.80;;
2866;SDS011;1441;48.886;8.728;2023-04-25T04:34:15;3.53;;;2.60;;
2866;SDS011;1441;48.886;8.728;2023-04-25T04:36:44;2.80;;;2.57;;
2866;SDS011;1441;48.886;8.728;2023-04-25T04:39:11;3.47;;;3.10;;
2866;SDS011;1441;48.886;8.728;2023-04-25T04:41:38;4.83;;;3.37;;
2866;SDS011;1441;48.886;8.728;2023-04-25T04:44:04;3.20;;;2.90;;
2866;SDS011;1441;48.886;8.728;2023-04-25T04:46:31;3.73;;;3.03;;
2866;SDS011;1441;48.886;8.728;2023-04-25T04:49:02;6.63;;;3.90;;
2866;SDS011;1441;48.886;8.728;2023-04-25T04:51:31;4.10;;;3.20;;
2866;SDS011;1441;48.886;8.728;2023-04-25T04:53:56;3.03;;;2.83;;
2866;SDS011;1441;48.886;8.728;2023-04-25T04:56:23;3.37;;;3.17;;
2866;SDS011;1441;48.886;8.728;2023-04-25T04:58:50;23.43;;;3.60;;
2866;SDS011;1441;48.886;8.728;2023-04-25T05:01:16;6.00;;;2.97;;
2866;SDS011;1441;48.886;8.728;2023-04-25T05:03:41;5.10;;;2.90;;
2866;SDS011;1441;48.886;8.728;2023-04-25T05:06:07;3.30;;;3.00;;
2866;SDS011;1441;48.886;8.728;2023-04-25T05:08:33;3.40;;;3.10;;
2866;SDS011;1441;48.886;8.728;2023-04-25T05:10:59;4.73;;;2.83;;
2866;SDS011;1441;48.886;8.728;2023-04-25T05:13:25;3.00;;;2.17;;
2866;SDS011;1441;48.886;8.728;2023-04-25T05:15:50;3.10;;;2.83;;
2866;SDS011;1441;48.886;8.728;2023-04-25T05:18:16;2.70;;;2.50;;
2866;SDS011;1441;48.886;8.728;2023-04-25T05:20:41;2.50;;;2.30;;
2866;SDS011;1441;48.886;8.728;2023-04-25T05:23:07;3.97;;;3.50;;
2866;SDS011;1441;48.886;8.728;2023-04-25T05:25:32;3.00;;;2.70;;
2866;SDS011;1441;48.886;8.728;2023-04-25T05:27:58;3.33;;;3.03;;
2866;SDS011;1441;48.886;8.728;2023-04-25T05:30:24;4.07;;;3.10;;
2866;SDS011;1441;48.886;8.728;2023-04-25T05:32:49;3.00;;;2.80;;
2866;SDS011;1441;48.886;8.728;2023-04-25T05:35:15;2.60;;;2.50;;
2866;SDS011;1441;48.886;8.728;2023-04-25T05:37:41;2.50;;;2.40;;
2866;SDS011;1441;48.886;8.728;2023-04-25T05:40:07;2.43;;;2.33;;
2866;SDS011;1441;48.886;8.728;2023-04-25T05:42:34;2.90;;;2.80;;
2866;SDS011;1441;48.886;8.728;2023-04-25T05:44:59;4.70;;;3.23;;
2866;SDS011;1441;48.886;8.728;2023-04-25T05:47:25;3.13;;;2.83;;
2866;SDS011;1441;48.886;8.728;2023-04-25T05:49:51;3.30;;;3.10;;
2866;SDS011;1441;48.886;8.728;2023-04-25T05:52:17;3.37;;;2.80;;
2866;SDS011;1441;48.886;8.728;2023-04-25T05:54:42;2.70;;;2.50;;
2866;SDS011;1441;48.886;8.728;2023-04-25T05:57:08;3.17;;;2.60;;
2866;SDS011;1441;48.886;8.728;2023-04-25T05:59:33;3.30;;;2.97;;
2866;SDS011;1441;48.886;8.728;2023-04-25T06:01:59;3.50;;;2.90;;
2866;SDS011;1441;48.886;8.728;2023-04-25T06:04:25;3.23;;;2.90;;
2866;SDS011;1441;48.886;8.728;2023-04-25T06:06:51;3.03;;;2.83;;
2866;SDS011;1441;48.886;8.728;2023-04-25T06:09:16;4.23;;;2.80;;
2866;SDS011;1441;48.886;8.728;2023-04-25T06:11:42;2.93;;;2.70;;
2866;SDS011;1441;48.886;8.728;2023-04-25T06:14:07;2.30;;;2.20;;
2866;SDS011;1441;48.886;8.728;2023-04-25T06:16:33;3.10;;;2.80;;
2866;SDS011;1441;48.886;8.728;2023-04-25T06:18:59;3.33;;;2.83;;
2866;SDS011;1441;48.886;8.728;2023-04-25T06:21:24;3.07;;;2.77;;
2866;SDS011;1441;48.886;8.728;2023-04-25T06:23:50;3.00;;;2.80;;
2866;SDS011;1441;48.886;8.728;2023-04-25T06:26:16;2.57;;;2.37;;
2866;SDS011;1441;48.886;8.728;2023-04-25T06:28:41;3.37;;;3.10;;
2866;SDS011;1441;48.886;8.728;2023-04-25T06:31:07;3.00;;;2.73;;
2866;SDS011;1441;48.886;8.728;2023-04-25T06:33:33;5.33;;;3.27;;
2866;SDS011;1441;48.886;8.728;2023-04-25T06:35:58;6.10;;;3.27;;
2866;SDS011;1441;48.886;8.728;2023-04-25T06:38:24;4.17;;;3.73;;
2866;SDS011;1441;48.886;8.728;2023-04-25T06:40:49;3.37;;;3.10;;
2866;SDS011;1441;48.886;8.728;2023-04-25T06:43:15;3.37;;;3.00;;
2866;SDS011;1441;48.886;8.728;2023-04-25T06:45:40;4.23;;;3.80;;
2866;SDS011;1441;48.886;8.728;2023-04-25T06:48:07;3.67;;;3.33;;
2866;SDS011;1441;48.886;8.728;2023-04-25T06:50:33;3.70;;;3.37;;
2866;SDS011;1441;48.886;8.728;2023-04-25T06:52:58;4.70;;;3.83;;
2866;SDS011;1441;48.886;8.728;2023-04-25T06:55:26;3.70;;;3.40;;
2866;SDS011;1441;48.886;8.728;2023-04-25T06:57:52;3.53;;;3.23;;
2866;SDS011;1441;48.886;8.728;2023-04-25T07:00:20;3.03;;;2.83;;
2866;SDS011;1441;48.886;8.728;2023-04-25T07:02:46;4.20;;;2.93;;
2866;SDS011;1441;48.886;8.728;2023-04-25T07:05:11;3.97;;;3.10;;
2866;SDS011;1441;48.886;8.728;2023-04-25T07:07:37;3.83;;;3.27;;
2866;SDS011;1441;48.886;8.728;2023-04-25T07:10:02;4.17;;;3.43;;
2866;SDS011;1441;48.886;8.728;2023-04-25T07:12:28;5.70;;;3.30;;
2866;SDS011;1441;48.886;8.728;2023-04-25T07:14:54;3.50;;;3.23;;
2866;SDS011;1441;48.886;8.728;2023-04-25T07:17:19;3.30;;;3.03;;
2866;SDS011;1441;48.886;8.728;2023-04-25T07:19:45;3.63;;;3.10;;
2866;SDS011;1441;48.886;8.728;2023-04-25T07:22:10;3.83;;;3.53;;
2866;SDS011;1441;48.886;8.728;2023-04-25T07:24:36;4.50;;;3.40;;
2866;SDS011;1441;48.886;8.728;2023-04-25T07:27:01;3.33;;;3.00;;
2866;SDS011;1441;48.886;8.728;2023-04-25T07:29:27;3.77;;;3.40;;
2866;SDS011;1441;48.886;8.728;2023-04-25T07:31:53;5.50;;;3.90;;
2866;SDS011;1441;48.886;8.728;2023-04-25T07:34:19;4.00;;;3.70;;
2866;SDS011;1441;48.886;8.728;2023-04-25T07:36:44;3.93;;;3.57;;
2866;SDS011;1441;48.886;8.728;2023-04-25T07:39:10;3.47;;;2.57;;
2866;SDS011;1441;48.886;8.728;2023-04-25T07:41:36;3.13;;;2.80;;
2866;SDS011;1441;48.886;8.728;2023-04-25T07:44:01;4.23;;;3.90;;
2866;SDS011;1441;48.886;8.728;2023-04-25T07:46:27;5.60;;;3.90;;
2866;SDS011;1441;48.886;8.728;2023-04-25T07:48:53;3.97;;;3.67;;
2866;SDS011;1441;48.886;8.728;2023-04-25T07:51:18;14.93;;;3.40;;
2866;SDS011;1441;48.886;8.728;2023-04-25T07:53:45;4.27;;;3.87;;
2866;SDS011;1441;48.886;8.728;2023-04-25T07:56:11;2.70;;;2.50;;
2866;SDS011;1441;48.886;8.728;2023-04-25T07:58:36;3.30;;;3.10;;
2866;SDS011;1441;48.886;8.728;2023-04-25T08:01:02;7.03;;;3.63;;
2866;SDS011;1441;48.886;8.728;2023-04-25T08:03:28;4.87;;;3.30;;
2866;SDS011;1441;48.886;8.728;2023-04-25T08:05:53;2.77;;;2.57;;
2866;SDS011;1441;48.886;8.728;2023-04-25T08:08:19;5.17;;;2.90;;
2866;SDS011;1441;48.886;8.728;2023-04-25T08:10:44;3.90;;;3.57;;
2866;SDS011;1441;48.886;8.728;2023-04-25T08:13:10;4.20;;;2.87;;
2866;SDS011;1441;48.886;8.728;2023-04-25T08:15:35;4.17;;;3.57;;
2866;SDS011;1441;48.886;8.728;2023-04-25T08:18:01;8.13;;;3.90;;
2866;SDS011;1441;48.886;8.728;2023-04-25T08:20:27;4.43;;;4.00;;
2866;SDS011;1441;48.886;8.728;2023-04-25T08:22:52;3.50;;;3.30;;
2866;SDS011;1441;48.886;8.728;2023-04-25T08:25:18;3.23;;;2.97;;
2866;SDS011;1441;48.886;8.728;2023-04-25T08:27:43;4.17;;;2.60;;
2866;SDS011;1441;48.886;8.728;2023-04-25T08:30:09;3.00;;;2.80;;
2866;SDS011;1441;48.886;8.728;2023-04-25T08:32:35;3.00;;;2.80;;
2866;SDS011;1441;48.886;8.728;2023-04-25T08:35:03;3.40;;;3.20;;
2866;SDS011;1441;48.886;8.728;2023-04-25T08:37:29;2.90;;;2.70;;
2866;SDS011;1441;48.886;8.728;2023-04-25T08:39:54;19.27;;;3.00;;
2866;SDS011;1441;48.886;8.728;2023-04-25T08:42:21;3.47;;;2.97;;
2866;SDS011;1441;48.886;8.728;2023-04-25T08:44:47;5.80;;;2.83;;
2866;SDS011;1441;48.886;8.728;2023-04-25T08:47:13;2.40;;;2.30;;
2866;SDS011;1441;48.886;8.728;2023-04-25T08:49:39;2.30;;;2.20;;
2866;SDS011;1441;48.886;8.728;2023-04-25T08:52:11;12.90;;;3.50;;
2866;SDS011;1441;48.886;8.728;2023-04-25T08:54:41;2.60;;;2.40;;
2866;SDS011;1441;48.886;8.728;2023-04-25T08:57:09;2.53;;;2.43;;
2866;SDS011;1441;48.886;8.728;2023-04-25T08:59:35;2.50;;;2.40;;
2866;SDS011;1441;48.886;8.728;2023-04-25T09:02:02;2.43;;;2.23;;
2866;SDS011;1441;48.886;8.728;2023-04-25T09:04:29;2.43;;;2.33;;
2866;SDS011;1441;48.886;8.728;2023-04-25T09:06:56;2.70;;;2.20;;
2866;SDS011;1441;48.886;8.728;2023-04-25T09:09:22;2.93;;;2.73;;
2866;SDS011;1441;48.886;8.728;2023-04-25T09:11:48;3.20;;;3.00;;
2866;SDS011;1441;48.886;8.728;2023-04-25T09:14:19;4.30;;;2.67;;
2866;SDS011;1441;48.886;8.728;2023-04-25T09:19:31;3.00;;;2.43;;
2866;SDS011;1441;48.886;8.728;2023-04-25T09:22:01;2.43;;;2.33;;
2866;SDS011;1441;48.886;8.728;2023-04-25T09:27:02;2.33;;;2.17;;
2866;SDS011;1441;48.886;8.728;2023-04-25T09:29:32;4.60;;;2.10;;
2866;SDS011;1441;48.886;8.728;2023-04-25T09:32:18;2.17;;;1.97;;
2866;SDS011;1441;48.886;8.728;2023-04-25T09:34:49;2.17;;;1.83;;
2866;SDS011;1441;48.886;8.728;2023-04-25T09:37:20;2.23;;;2.10;;
2866;SDS011;1441;48.886;8.728;2023-04-25T09:39:47;2.60;;;1.60;;
2866;SDS011;1441;48.886;8.728;2023-04-25T09:42:14;1.07;;;1.07;;
2866;SDS011;1441;48.886;8.728;2023-04-25T09:44:44;1.10;;;1.10;;
2866;SDS011;1441;48.886;8.728;2023-04-25T09:47:15;0.90;;;0.90;;
2866;SDS011;1441;48.886;8.728;2023-04-25T09:49:42;1.00;;;1.00;;
2866;SDS011;1441;48.886;8.728;2023-04-25T09:52:08;1.03;;;1.03;;
2866;SDS011;1441;48.886;8.728;2023-04-25T09:54:38;0.93;;;0.93;;
2866;SDS011;1441;48.886;8.728;2023-04-25T09:57:10;0.70;;;0.70;;
2866;SDS011;1441;48.886;8.728;2023-04-25T09:59:38;0.80;;;0.80;;
2866;SDS011;1441;48.886;8.728;2023-04-25T10:02:07;0.70;;;0.70;;
2866;SDS011;1441;48.886;8.728;2023-04-25T10:04:34;0.90;;;0.77;;
2866;SDS011;1441;48.886;8.728;2023-04-25T10:07:02;1.20;;;1.03;;
2866;SDS011;1441;48.886;8.728;2023-04-25T10:09:30;0.70;;;0.70;;
2866;SDS011;1441;48.886;8.728;2023-04-25T10:11:59;1.50;;;1.40;;
2866;SDS011;1441;48.886;8.728;2023-04-25T10:14:25;3.57;;;2.20;;
2866;SDS011;1441;48.886;8.728;2023-04-25T10:16:51;2.87;;;2.67;;
2866;SDS011;1441;48.886;8.728;2023-04-25T10:19:21;3.70;;;3.50;;
2866;SDS011;1441;48.886;8.728;2023-04-25T10:21:58;6.13;;;4.40;;
2866;SDS011;1441;48.886;8.728;2023-04-25T10:24:30;5.57;;;4.87;;
2866;SDS011;1441;48.886;8.728;2023-04-25T10:26:57;4.30;;;4.00;;
2866;SDS011;1441;48.886;8.728;2023-04-25T10:29:27;5.23;;;4.53;;
2866;SDS011;1441;48.886;8.728;2023-04-25T10:31:52;4.87;;;4.47;;
2866;SDS011;1441;48.886;8.728;2023-04-25T10:34:19;5.10;;;4.60;;
2866;SDS011;1441;48.886;8.728;2023-04-25T10:36:50;5.53;;;5.03;;
2866;SDS011;1441;48.886;8.728;2023-04-25T10:39:24;5.93;;;5.43;;
2866;SDS011;1441;48.886;8.728;2023-04-25T10:41:52;5.47;;;4.87;;
2866;SDS011;1441;48.886;8.728;2023-04-25T10:44:21;8.50;;;5.87;;
2866;SDS011;1441;48.886;8.728;2023-04-25T10:46:47;4.30;;;3.90;;
2866;SDS011;1441;48.886;8.728;2023-04-25T10:52:24;4.33;;;3.93;;
2866;SDS011;1441;48.886;8.728;2023-04-25T10:54:55;5.27;;;4.80;;
2866;SDS011;1441;48.886;8.728;2023-04-25T10:59:57;4.77;;;4.37;;
2866;SDS011;1441;48.886;8.728;2023-04-25T11:02:30;5.20;;;4.70;;
2866;SDS011;1441;48.886;8.728;2023-04-25T11:04:56;7.33;;;4.23;;
2866;SDS011;1441;48.886;8.728;2023-04-25T11:07:37;11.67;;;5.50;;
2866;SDS011;1441;48.886;8.728;2023-04-25T11:10:15;6.30;;;5.20;;
2866;SDS011;1441;48.886;8.728;2023-04-25T11:12:41;7.43;;;5.00;;
2866;SDS011;1441;48.886;8.728;2023-04-25T11:15:07;7.20;;;5.73;;
2866;SDS011;1441;48.886;8.728;2023-04-25T11:17:33;8.90;;;6.13;;
2866;SDS011;1441;48.886;8.728;2023-04-25T11:19:59;9.83;;;5.90;;
2866;SDS011;1441;48.886;8.728;2023-04-25T11:22:26;9.50;;;6.43;;
2866;SDS011;1441;48.886;8.728;2023-04-25T11:24:52;7.33;;;5.10;;
2866;SDS011;1441;48.886;8.728;2023-04-25T11:27:18;7.43;;;5.00;;
2866;SDS011;1441;48.886;8.728;2023-04-25T11:29:45;4.97;;;4.57;;
2866;SDS011;1441;48.886;8.728;2023-04-25T11:32:13;5.43;;;4.73;;
2866;SDS011;1441;48.886;8.728;2023-04-25T11:34:42;3.50;;;3.30;;
2866;SDS011;1441;48.886;8.728;2023-04-25T11:37:10;7.83;;;4.80;;
2866;SDS011;1441;48.886;8.728;2023-04-25T11:39:37;3.67;;;3.37;;
2866;SDS011;1441;48.886;8.728;2023-04-25T11:42:03;3.30;;;3.10;;
2866;SDS011;1441;48.886;8.728;2023-04-25T11:44:30;3.53;;;3.13;;
2866;SDS011;1441;48.886;8.728;2023-04-25T11:46:56;3.30;;;3.00;;
2866;SDS011;1441;48.886;8.728;2023-04-25T11:49:21;4.83;;;3.53;;
2866;SDS011;1441;48.886;8.728;2023-04-25T11:51:49;8.53;;;3.03;;
2866;SDS011;1441;48.886;8.728;2023-04-25T11:54:15;2.70;;;2.50;;
2866;SDS011;1441;48.886;8.728;2023-04-25T11:56:44;4.90;;;2.47;;
2866;SDS011;1441;48.886;8.728;2023-04-25T11:59:10;4.40;;;2.37;;
2866;SDS011;1441;48.886;8.728;2023-04-25T12:01:37;3.97;;;1.30;;
2866;SDS011;1441;48.886;8.728;2023-04-25T12:06:42;1.47;;;1.37;;
2866;SDS011;1441;48.886;8.728;2023-04-25T12:09:11;1.70;;;1.60;;
2866;SDS011;1441;48.886;8.728;2023-04-25T12:11:47;1.70;;;1.60;;
2866;SDS011;1441;48.886;8.728;2023-04-25T12:14:21;1.70;;;1.60;;
2866;SDS011;1441;48.886;8.728;2023-04-25T12:16:55;2.30;;;2.13;;
2866;SDS011;1441;48.886;8.728;2023-04-25T12:19:25;3.90;;;2.27;;
2866;SDS011;1441;48.886;8.728;2023-04-25T12:21:51;2.73;;;2.33;;
2866;SDS011;1441;48.886;8.728;2023-04-25T12:24:23;4.27;;;2.70;;
2866;SDS011;1441;48.886;8.728;2023-04-25T12:27:04;3.20;;;2.90;;
2866;SDS011;1441;48.886;8.728;2023-04-25T12:29:32;3.60;;;3.20;;
2866;SDS011;1441;48.886;8.728;2023-04-25T12:31:59;3.40;;;3.10;;
2866;SDS011;1441;48.886;8.728;2023-04-25T12:34:26;3.47;;;3.20;;
2866;SDS011;1441;48.886;8.728;2023-04-25T12:36:53;3.63;;;3.33;;
2866;SDS011;1441;48.886;8.728;2023-04-25T12:39:22;4.13;;;3.73;;
2866;SDS011;1441;48.886;8.728;2023-04-25T12:41:52;5.30;;;3.27;;
2866;SDS011;1441;48.886;8.728;2023-04-25T12:44:19;3.80;;;3.40;;
2866;SDS011;1441;48.886;8.728;2023-04-25T12:46:45;7.23;;;4.57;;
2866;SDS011;1441;48.886;8.728;2023-04-25T12:49:10;5.70;;;4.80;;
2866;SDS011;1441;48.886;8.728;2023-04-25T12:51:36;6.13;;;5.20;;
2866;SDS011;1441;48.886;8.728;2023-04-25T12:54:03;5.20;;;4.40;;
2866;SDS011;1441;48.886;8.728;2023-04-25T12:56:31;4.87;;;4.40;;
2866;SDS011;1441;48.886;8.728;2023-04-25T12:58:57;5.63;;;4.53;;
2866;SDS011;1441;48.886;8.728;2023-04-25T13:01:23;4.70;;;4.30;;
2866;SDS011;1441;48.886;8.728;2023-04-25T13:03:49;4.90;;;4.27;;
2866;SDS011;1441;48.886;8.728;2023-04-25T13:06:15;4.80;;;4.30;;
2866;SDS011;1441;48.886;8.728;2023-04-25T13:08:42;6.27;;;5.47;;
2866;SDS011;1441;48.886;8.728;2023-04-25T13:11:07;8.20;;;5.10;;
2866;SDS011;1441;48.886;8.728;2023-04-25T13:13:33;5.17;;;4.67;;
2866;SDS011;1441;48.886;8.728;2023-04-25T13:16:03;4.60;;;4.20;;
2866;SDS011;1441;48.886;8.728;2023-04-25T13:18:32;5.47;;;4.90;;
2866;SDS011;1441;48.886;8.728;2023-04-25T13:20:58;4.60;;;4.20;;
2866;SDS011;1441;48.886;8.728;2023-04-25T13:23:25;6.00;;;4.70;;
2866;SDS011;1441;48.886;8.728;2023-04-25T13:25:51;8.13;;;4.60;;
2866;SDS011;1441;48.886;8.728;2023-04-25T13:28:17;9.17;;;5.00;;
2866;SDS011;1441;48.886;8.728;2023-04-25T13:30:43;6.10;;;4.40;;
2866;SDS011;1441;48.886;8.728;2023-04-25T13:33:09;5.10;;;4.53;;
2866;SDS011;1441;48.886;8.728;2023-04-25T13:35:35;5.97;;;4.53;;
2866;SDS011;1441;48.886;8.728;2023-04-25T13:38:01;4.30;;;3.90;;
2866;SDS011;1441;48.886;8.728;2023-04-25T13:40:27;5.97;;;5.00;;
2866;SDS011;1441;48.886;8.728;2023-04-25T13:42:53;5.83;;;4.33;;
2866;SDS011;1441;48.886;8.728;2023-04-25T13:45:19;10.10;;;4.10;;
2866;SDS011;1441;48.886;8.728;2023-04-25T13:47:45;8.33;;;4.17;;
2866;SDS011;1441;48.886;8.728;2023-04-25T13:50:12;4.23;;;3.83;;
2866;SDS011;1441;48.886;8.728;2023-04-25T13:52:38;4.80;;;2.70;;
2866;SDS011;1441;48.886;8.728;2023-04-25T13:55:04;4.00;;;3.70;;
2866;SDS011;1441;48.886;8.728;2023-04-25T13:57:32;4.20;;;3.40;;
2866;SDS011;1441;48.886;8.728;2023-04-25T13:59:58;4.10;;;3.73;;
2866;SDS011;1441;48.886;8.728;2023-04-25T14:02:24;4.43;;;4.00;;
2866;SDS011;1441;48.886;8.728;2023-04-25T14:04:50;4.50;;;3.40;;
2866;SDS011;1441;48.886;8.728;2023-04-25T14:07:15;4.50;;;3.33;;
2866;SDS011;1441;48.886;8.728;2023-04-25T14:09:41;5.70;;;3.57;;
2866;SDS011;1441;48.886;8.728;2023-04-25T14:12:07;5.97;;;4.30;;
2866;SDS011;1441;48.886;8.728;2023-04-25T14:14:32;3.60;;;3.30;;
2866;SDS011;1441;48.886;8.728;2023-04-25T14:16:58;3.23;;;2.93;;
2866;SDS011;1441;48.886;8.728;2023-04-25T14:19:23;6.00;;;3.50;;
2866;SDS011;1441;48.886;8.728;2023-04-25T14:21:49;3.43;;;3.10;;
2866;SDS011;1441;48.886;8.728;2023-04-25T14:24:15;3.60;;;3.37;;
2866;SDS011;1441;48.886;8.728;2023-04-25T14:26:41;2.93;;;2.73;;
2866;SDS011;1441;48.886;8.728;2023-04-25T14:29:07;2.70;;;2.40;;
2866;SDS011;1441;48.886;8.728;2023-04-25T14:31:33;2.80;;;1.90;;
2866;SDS011;1441;48.886;8.728;2023-04-25T14:34:00;2.57;;;1.70;;
2866;SDS011;1441;48.886;8.728;2023-04-25T14:36:27;5.10;;;1.73;;
2866;SDS011;1441;48.886;8.728;2023-04-25T14:38:54;4.00;;;2.10;;
2866;SDS011;1441;48.886;8.728;2023-04-25T14:41:19;1.97;;;1.87;;
2866;SDS011;1441;48.886;8.728;2023-04-25T14:43:46;1.90;;;1.80;;
2866;SDS011;1441;48.886;8.728;2023-04-25T14:46:11;2.37;;;2.27;;
2866;SDS011;1441;48.886;8.728;2023-04-25T14:48:37;3.00;;;2.80;;
2866;SDS011;1441;48.886;8.728;2023-04-25T14:51:03;2.40;;;2.30;;
2866;SDS011;1441;48.886;8.728;2023-04-25T14:53:30;2.00;;;1.90;;
2866;SDS011;1441;48.886;8.728;2023-04-25T14:55:56;3.53;;;3.20;;
2866;SDS011;1441;48.886;8.728;2023-04-25T14:58:22;3.93;;;2.90;;
2866;SDS011;1441;48.886;8.728;2023-04-25T15:00:48;3.87;;;3.30;;
2866;SDS011;1441;48.886;8.728;2023-04-25T15:03:13;5.00;;;2.67;;
2866;SDS011;1441;48.886;8.728;2023-04-25T15:05:41;3.20;;;2.93;;
2866;SDS011;1441;48.886;8.728;2023-04-25T15:08:07;3.73;;;3.37;;
2866;SDS011;1441;48.886;8.728;2023-04-25T15:10:33;3.73;;;3.33;;
2866;SDS011;1441;48.886;8.728;2023-04-25T15:12:59;4.07;;;3.70;;
2866;SDS011;1441;48.886;8.728;2023-04-25T15:15:25;7.40;;;3.77;;
2866;SDS011;1441;48.886;8.728;2023-04-25T15:17:51;9.20;;;4.03;;
2866;SDS011;1441;48.886;8.728;2023-04-25T15:20:18;3.77;;;3.47;;
2866;SDS011;1441;48.886;8.728;2023-04-25T15:22:44;6.63;;;4.00;;
2866;SDS011;1441;48.886;8.728;2023-04-25T15:25:13;4.57;;;3.73;;